sensor_id;sensor_type;location;lat;lon;timestamp;P1;durP1;ratioP1;P2;durP2;ratioP2
10061;SDS011;5070;52.382;5.270;2023-02-13T00:01:45;9.25;;;8.75;;
10061;SDS011;5070;52.382;5.270;2023-02-13T00:04:13;6.10;;;5.80;;
10061;SDS011;5070;52.382;5.270;2023-02-13T00:06:41;9.50;;;8.82;;
10061;SDS011;5070;52.382;5.270;2023-02-13T00:09:09;6.55;;;6.15;;
10061;SDS011;5070;52.382;5.270;2023-02-13T00:11:37;14.43;;;9.60;;
10061;SDS011;5070;52.382;5.270;2023-02-13T00:14:07;10.43;;;7.35;;
10061;SDS011;5070;52.382;5.270;2023-02-13T00:16:37;7.28;;;6.38;;
10061;SDS011;5070;52.382;5.270;2023-02-13T00:19:05;20.25;;;9.07;;
10061;SDS011;5070;52.382;5.270;2023-02-13T00:21:37;9.57;;;8.32;;
10061;SDS011;5070;52.382;5.270;2023-02-13T00:24:05;8.77;;;7.25;;
10061;SDS011;5070;52.382;5.270;2023-02-13T00:26:35;8.15;;;7.38;;
10061;SDS011;5070;52.382;5.270;2023-02-13T00:29:02;9.00;;;8.50;;
10061;SDS011;5070;52.382;5.270;2023-02-13T00:31:30;11.25;;;7.32;;
10061;SDS011;5070;52.382;5.270;2023-02-13T00:34:00;7.40;;;7.00;;
10061;SDS011;5070;52.382;5.270;2023-02-13T00:36:28;5.65;;;5.35;;
10061;SDS011;5070;52.382;5.270;2023-02-13T00:38:56;10.10;;;6.50;;
10061;SDS011;5070;52.382;5.270;2023-02-13T00:41:24;12.20;;;7.35;;
10061;SDS011;5070;52.382;5.270;2023-02-13T00:43:53;6.25;;;5.57;;
10061;SDS011;5070;52.382;5.270;2023-02-13T00:46:21;6.22;;;5.90;;
10061;SDS011;5070;52.382;5.270;2023-02-13T00:48:49;9.63;;;6.45;;
10061;SDS011;5070;52.382;5.270;2023-02-13T00:51:18;7.97;;;6.25;;
10061;SDS011;5070;52.382;5.270;2023-02-13T00:53:46;8.45;;;5.32;;
10061;SDS011;5070;52.382;5.270;2023-02-13T00:56:14;6.30;;;5.95;;
10061;SDS011;5070;52.382;5.270;2023-02-13T00:58:43;10.77;;;5.90;;
10061;SDS011;5070;52.382;5.270;2023-02-13T01:01:11;6.75;;;6.35;;
10061;SDS011;5070;52.382;5.270;2023-02-13T01:03:39;12.70;;;7.45;;
10061;SDS011;5070;52.382;5.270;2023-02-13T01:06:07;11.30;;;7.32;;
10061;SDS011;5070;52.382;5.270;2023-02-13T01:08:38;13.35;;;5.63;;
10061;SDS011;5070;52.382;5.270;2023-02-13T01:11:07;6.50;;;6.10;;
10061;SDS011;5070;52.382;5.270;2023-02-13T01:13:35;4.82;;;4.53;;
10061;SDS011;5070;52.382;5.270;2023-02-13T01:16:03;6.82;;;5.50;;
10061;SDS011;5070;52.382;5.270;2023-02-13T01:18:32;9.88;;;4.15;;
10061;SDS011;5070;52.382;5.270;2023-02-13T01:21:00;9.27;;;5.55;;
10061;SDS011;5070;52.382;5.270;2023-02-13T01:23:31;6.00;;;3.50;;
10061;SDS011;5070;52.382;5.270;2023-02-13T01:26:01;10.82;;;7.43;;
10061;SDS011;5070;52.382;5.270;2023-02-13T01:28:30;6.55;;;5.50;;
10061;SDS011;5070;52.382;5.270;2023-02-13T01:30:58;6.78;;;5.32;;
10061;SDS011;5070;52.382;5.270;2023-02-13T01:33:27;5.05;;;4.75;;
10061;SDS011;5070;52.382;5.270;2023-02-13T01:35:55;6.47;;;6.07;;
10061;SDS011;5070;52.382;5.270;2023-02-13T01:38:26;6.22;;;5.88;;
10061;SDS011;5070;52.382;5.270;2023-02-13T01:40:54;4.32;;;4.05;;
10061;SDS011;5070;52.382;5.270;2023-02-13T01:43:41;5.75;;;5.28;;
10061;SDS011;5070;52.382;5.270;2023-02-13T01:46:14;6.20;;;5.90;;
10061;SDS011;5070;52.382;5.270;2023-02-13T01:48:44;7.22;;;5.15;;
10061;SDS011;5070;52.382;5.270;2023-02-13T01:51:15;8.07;;;6.28;;
10061;SDS011;5070;52.382;5.270;2023-02-13T01:53:48;10.30;;;5.20;;
10061;SDS011;5070;52.382;5.270;2023-02-13T01:56:22;4.93;;;4.60;;
10061;SDS011;5070;52.382;5.270;2023-02-13T01:58:55;6.63;;;4.80;;
10061;SDS011;5070;52.382;5.270;2023-02-13T02:01:26;5.13;;;4.82;;
10061;SDS011;5070;52.382;5.270;2023-02-13T02:03:58;8.18;;;5.43;;
10061;SDS011;5070;52.382;5.270;2023-02-13T02:06:33;6.70;;;5.85;;
10061;SDS011;5070;52.382;5.270;2023-02-13T02:09:06;6.85;;;5.55;;
10061;SDS011;5070;52.382;5.270;2023-02-13T02:11:40;14.63;;;6.70;;
10061;SDS011;5070;52.382;5.270;2023-02-13T02:14:14;5.70;;;3.88;;
10061;SDS011;5070;52.382;5.270;2023-02-13T02:16:42;6.65;;;5.88;;
10061;SDS011;5070;52.382;5.270;2023-02-13T02:19:13;6.40;;;6.00;;
10061;SDS011;5070;52.382;5.270;2023-02-13T02:22:00;7.05;;;4.63;;
10061;SDS011;5070;52.382;5.270;2023-02-13T02:24:46;9.90;;;4.82;;
10061;SDS011;5070;52.382;5.270;2023-02-13T02:33:46;7.05;;;6.65;;
10061;SDS011;5070;52.382;5.270;2023-02-13T02:36:27;6.82;;;6.43;;
10061;SDS011;5070;52.382;5.270;2023-02-13T02:39:04;5.38;;;4.63;;
10061;SDS011;5070;52.382;5.270;2023-02-13T02:41:45;5.63;;;5.32;;
10061;SDS011;5070;52.382;5.270;2023-02-13T02:44:26;5.10;;;4.78;;
10061;SDS011;5070;52.382;5.270;2023-02-13T02:47:09;6.13;;;4.80;;
10061;SDS011;5070;52.382;5.270;2023-02-13T02:50:13;6.82;;;3.88;;
10061;SDS011;5070;52.382;5.270;2023-02-13T02:52:54;7.65;;;7.07;;
10061;SDS011;5070;52.382;5.270;2023-02-13T02:55:36;7.38;;;5.43;;
10061;SDS011;5070;52.382;5.270;2023-02-13T02:58:11;8.30;;;4.97;;
10061;SDS011;5070;52.382;5.270;2023-02-13T03:01:02;4.45;;;4.15;;
10061;SDS011;5070;52.382;5.270;2023-02-13T03:03:51;5.20;;;4.90;;
10061;SDS011;5070;52.382;5.270;2023-02-13T03:06:43;6.55;;;5.63;;
10061;SDS011;5070;52.382;5.270;2023-02-13T03:09:15;16.77;;;8.50;;
10061;SDS011;5070;52.382;5.270;2023-02-13T03:12:06;9.40;;;5.57;;
10061;SDS011;5070;52.382;5.270;2023-02-13T03:14:53;8.52;;;4.60;;
10061;SDS011;5070;52.382;5.270;2023-02-13T03:17:21;4.90;;;4.60;;
10061;SDS011;5070;52.382;5.270;2023-02-13T03:20:12;16.90;;;6.82;;
10061;SDS011;5070;52.382;5.270;2023-02-13T03:23:10;6.88;;;6.43;;
10061;SDS011;5070;52.382;5.270;2023-02-13T03:25:46;8.60;;;6.70;;
10061;SDS011;5070;52.382;5.270;2023-02-13T03:28:26;6.70;;;4.93;;
10061;SDS011;5070;52.382;5.270;2023-02-13T03:31:22;6.63;;;5.35;;
10061;SDS011;5070;52.382;5.270;2023-02-13T03:33:56;9.75;;;7.57;;
10061;SDS011;5070;52.382;5.270;2023-02-13T03:36:32;9.18;;;5.88;;
10061;SDS011;5070;52.382;5.270;2023-02-13T03:39:29;8.45;;;4.53;;
10061;SDS011;5070;52.382;5.270;2023-02-13T03:42:05;5.85;;;5.55;;
10061;SDS011;5070;52.382;5.270;2023-02-13T03:44:38;12.82;;;4.63;;
10061;SDS011;5070;52.382;5.270;2023-02-13T03:47:09;4.82;;;4.53;;
10061;SDS011;5070;52.382;5.270;2023-02-13T03:49:40;4.22;;;3.97;;
10061;SDS011;5070;52.382;5.270;2023-02-13T03:52:32;4.63;;;4.32;;
10061;SDS011;5070;52.382;5.270;2023-02-13T03:55:08;5.57;;;4.45;;
10061;SDS011;5070;52.382;5.270;2023-02-13T03:57:57;6.00;;;4.03;;
10061;SDS011;5070;52.382;5.270;2023-02-13T04:00:47;8.13;;;5.05;;
10061;SDS011;5070;52.382;5.270;2023-02-13T04:03:19;3.17;;;2.85;;
10061;SDS011;5070;52.382;5.270;2023-02-13T04:05:52;5.15;;;4.85;;
10061;SDS011;5070;52.382;5.270;2023-02-13T04:08:25;6.57;;;6.18;;
10061;SDS011;5070;52.382;5.270;2023-02-13T04:10:56;6.65;;;5.15;;
10061;SDS011;5070;52.382;5.270;2023-02-13T04:13:31;6.10;;;5.75;;
10061;SDS011;5070;52.382;5.270;2023-02-13T04:16:02;5.00;;;4.70;;
10061;SDS011;5070;52.382;5.270;2023-02-13T04:18:36;5.60;;;4.90;;
10061;SDS011;5070;52.382;5.270;2023-02-13T04:21:06;7.32;;;4.25;;
10061;SDS011;5070;52.382;5.270;2023-02-13T04:23:34;4.72;;;4.43;;
10061;SDS011;5070;52.382;5.270;2023-02-13T04:26:05;4.47;;;4.20;;
10061;SDS011;5070;52.382;5.270;2023-02-13T04:28:38;6.20;;;4.75;;
10061;SDS011;5070;52.382;5.270;2023-02-13T04:31:06;4.07;;;3.28;;
10061;SDS011;5070;52.382;5.270;2023-02-13T04:33:34;4.90;;;4.60;;
10061;SDS011;5070;52.382;5.270;2023-02-13T04:36:02;6.68;;;4.15;;
10061;SDS011;5070;52.382;5.270;2023-02-13T04:38:31;4.60;;;4.35;;
10061;SDS011;5070;52.382;5.270;2023-02-13T04:40:59;6.53;;;6.15;;
10061;SDS011;5070;52.382;5.270;2023-02-13T04:43:28;5.00;;;4.05;;
10061;SDS011;5070;52.382;5.270;2023-02-13T04:45:56;3.70;;;3.42;;
10061;SDS011;5070;52.382;5.270;2023-02-13T04:48:24;9.80;;;5.65;;
10061;SDS011;5070;52.382;5.270;2023-02-13T04:50:52;5.05;;;4.75;;
10061;SDS011;5070;52.382;5.270;2023-02-13T04:53:20;5.70;;;3.85;;
10061;SDS011;5070;52.382;5.270;2023-02-13T04:55:48;4.72;;;3.67;;
10061;SDS011;5070;52.382;5.270;2023-02-13T04:58:16;4.75;;;4.22;;
10061;SDS011;5070;52.382;5.270;2023-02-13T05:00:45;6.28;;;4.05;;
10061;SDS011;5070;52.382;5.270;2023-02-13T05:03:13;3.63;;;3.10;;
10061;SDS011;5070;52.382;5.270;2023-02-13T05:05:41;5.50;;;4.75;;
10061;SDS011;5070;52.382;5.270;2023-02-13T05:08:09;3.97;;;3.10;;
10061;SDS011;5070;52.382;5.270;2023-02-13T05:10:37;3.70;;;3.50;;
10061;SDS011;5070;52.382;5.270;2023-02-13T05:13:05;3.40;;;3.20;;
10061;SDS011;5070;52.382;5.270;2023-02-13T05:15:33;4.38;;;4.07;;
10061;SDS011;5070;52.382;5.270;2023-02-13T05:18:03;5.53;;;4.13;;
10061;SDS011;5070;52.382;5.270;2023-02-13T05:20:31;6.78;;;3.72;;
10061;SDS011;5070;52.382;5.270;2023-02-13T05:22:59;5.82;;;5.00;;
10061;SDS011;5070;52.382;5.270;2023-02-13T05:25:44;4.53;;;4.20;;
10061;SDS011;5070;52.382;5.270;2023-02-13T05:28:12;10.73;;;5.18;;
10061;SDS011;5070;52.382;5.270;2023-02-13T05:30:54;5.50;;;4.13;;
10061;SDS011;5070;52.382;5.270;2023-02-13T05:33:25;3.17;;;2.88;;
10061;SDS011;5070;52.382;5.270;2023-02-13T05:35:53;10.90;;;4.05;;
10061;SDS011;5070;52.382;5.270;2023-02-13T05:38:21;6.35;;;5.43;;
10061;SDS011;5070;52.382;5.270;2023-02-13T05:40:49;6.85;;;4.78;;
10061;SDS011;5070;52.382;5.270;2023-02-13T05:43:18;5.20;;;4.90;;
10061;SDS011;5070;52.382;5.270;2023-02-13T05:45:46;4.13;;;3.65;;
10061;SDS011;5070;52.382;5.270;2023-02-13T05:48:17;5.13;;;4.20;;
10061;SDS011;5070;52.382;5.270;2023-02-13T05:50:46;4.60;;;3.38;;
10061;SDS011;5070;52.382;5.270;2023-02-13T05:53:14;6.00;;;3.75;;
10061;SDS011;5070;52.382;5.270;2023-02-13T05:55:42;3.85;;;3.38;;
10061;SDS011;5070;52.382;5.270;2023-02-13T05:58:10;4.30;;;2.30;;
10061;SDS011;5070;52.382;5.270;2023-02-13T06:00:38;4.75;;;4.07;;
10061;SDS011;5070;52.382;5.270;2023-02-13T06:03:06;7.97;;;5.05;;
10061;SDS011;5070;52.382;5.270;2023-02-13T06:05:34;14.25;;;3.97;;
10061;SDS011;5070;52.382;5.270;2023-02-13T06:08:03;3.53;;;3.33;;
10061;SDS011;5070;52.382;5.270;2023-02-13T06:10:31;5.50;;;3.92;;
10061;SDS011;5070;52.382;5.270;2023-02-13T06:12:59;4.38;;;3.53;;
10061;SDS011;5070;52.382;5.270;2023-02-13T06:15:27;3.50;;;2.97;;
10061;SDS011;5070;52.382;5.270;2023-02-13T06:17:55;5.63;;;4.40;;
10061;SDS011;5070;52.382;5.270;2023-02-13T06:20:23;5.05;;;3.70;;
10061;SDS011;5070;52.382;5.270;2023-02-13T06:22:51;5.82;;;5.53;;
10061;SDS011;5070;52.382;5.270;2023-02-13T06:25:21;4.18;;;3.75;;
10061;SDS011;5070;52.382;5.270;2023-02-13T06:27:49;6.97;;;4.45;;
10061;SDS011;5070;52.382;5.270;2023-02-13T06:30:17;4.82;;;3.58;;
10061;SDS011;5070;52.382;5.270;2023-02-13T06:32:46;6.63;;;4.07;;
10061;SDS011;5070;52.382;5.270;2023-02-13T06:35:14;4.80;;;4.50;;
10061;SDS011;5070;52.382;5.270;2023-02-13T06:37:42;8.48;;;4.05;;
10061;SDS011;5070;52.382;5.270;2023-02-13T06:40:11;8.02;;;3.65;;
10061;SDS011;5070;52.382;5.270;2023-02-13T06:42:42;3.83;;;3.63;;
10061;SDS011;5070;52.382;5.270;2023-02-13T06:45:10;5.78;;;5.07;;
10061;SDS011;5070;52.382;5.270;2023-02-13T06:47:39;8.80;;;4.97;;
10061;SDS011;5070;52.382;5.270;2023-02-13T06:50:08;4.40;;;4.07;;
10061;SDS011;5070;52.382;5.270;2023-02-13T06:52:37;3.40;;;3.20;;
10061;SDS011;5070;52.382;5.270;2023-02-13T06:55:05;5.07;;;2.85;;
10061;SDS011;5070;52.382;5.270;2023-02-13T06:57:34;7.40;;;3.22;;
10061;SDS011;5070;52.382;5.270;2023-02-13T07:00:03;6.32;;;4.32;;
10061;SDS011;5070;52.382;5.270;2023-02-13T07:02:32;4.38;;;3.05;;
10061;SDS011;5070;52.382;5.270;2023-02-13T07:05:01;2.97;;;2.75;;
10061;SDS011;5070;52.382;5.270;2023-02-13T07:07:31;5.22;;;4.50;;
10061;SDS011;5070;52.382;5.270;2023-02-13T07:09:59;8.65;;;4.28;;
10061;SDS011;5070;52.382;5.270;2023-02-13T07:12:27;5.38;;;3.08;;
10061;SDS011;5070;52.382;5.270;2023-02-13T07:14:55;4.57;;;4.10;;
10061;SDS011;5070;52.382;5.270;2023-02-13T07:17:25;5.38;;;4.63;;
10061;SDS011;5070;52.382;5.270;2023-02-13T07:19:53;7.57;;;5.72;;
10061;SDS011;5070;52.382;5.270;2023-02-13T07:22:21;3.55;;;3.40;;
10061;SDS011;5070;52.382;5.270;2023-02-13T07:24:49;14.68;;;4.55;;
10061;SDS011;5070;52.382;5.270;2023-02-13T07:27:17;2.95;;;2.78;;
10061;SDS011;5070;52.382;5.270;2023-02-13T07:29:45;7.93;;;4.10;;
10061;SDS011;5070;52.382;5.270;2023-02-13T07:32:13;4.30;;;3.20;;
10061;SDS011;5070;52.382;5.270;2023-02-13T07:34:42;4.35;;;4.03;;
10061;SDS011;5070;52.382;5.270;2023-02-13T07:37:26;5.75;;;4.15;;
10061;SDS011;5070;52.382;5.270;2023-02-13T07:39:55;4.38;;;4.07;;
10061;SDS011;5070;52.382;5.270;2023-02-13T07:42:26;8.02;;;2.80;;
10061;SDS011;5070;52.382;5.270;2023-02-13T07:44:54;3.92;;;3.30;;
10061;SDS011;5070;52.382;5.270;2023-02-13T07:47:22;3.55;;;3.33;;
10061;SDS011;5070;52.382;5.270;2023-02-13T07:49:51;5.25;;;4.93;;
10061;SDS011;5070;52.382;5.270;2023-02-13T07:52:20;6.32;;;3.42;;
10061;SDS011;5070;52.382;5.270;2023-02-13T07:54:47;4.32;;;3.47;;
10061;SDS011;5070;52.382;5.270;2023-02-13T07:57:16;3.00;;;2.80;;
10061;SDS011;5070;52.382;5.270;2023-02-13T07:59:44;2.97;;;2.80;;
10061;SDS011;5070;52.382;5.270;2023-02-13T08:02:15;2.97;;;2.30;;
10061;SDS011;5070;52.382;5.270;2023-02-13T08:04:43;5.20;;;2.90;;
10061;SDS011;5070;52.382;5.270;2023-02-13T08:07:14;5.10;;;3.60;;
10061;SDS011;5070;52.382;5.270;2023-02-13T08:09:43;5.00;;;4.07;;
10061;SDS011;5070;52.382;5.270;2023-02-13T08:12:28;4.05;;;2.80;;
10061;SDS011;5070;52.382;5.270;2023-02-13T08:14:57;6.85;;;3.40;;
10061;SDS011;5070;52.382;5.270;2023-02-13T08:17:25;4.05;;;2.33;;
10061;SDS011;5070;52.382;5.270;2023-02-13T08:19:53;5.97;;;4.00;;
10061;SDS011;5070;52.382;5.270;2023-02-13T08:22:23;3.60;;;3.40;;
10061;SDS011;5070;52.382;5.270;2023-02-13T08:24:50;6.88;;;3.90;;
10061;SDS011;5070;52.382;5.270;2023-02-13T08:27:19;11.02;;;3.70;;
10061;SDS011;5070;52.382;5.270;2023-02-13T08:29:48;17.27;;;4.80;;
10061;SDS011;5070;52.382;5.270;2023-02-13T08:32:16;21.50;;;5.97;;
10061;SDS011;5070;52.382;5.270;2023-02-13T08:34:44;6.90;;;4.35;;
10061;SDS011;5070;52.382;5.270;2023-02-13T08:37:12;4.55;;;4.28;;
10061;SDS011;5070;52.382;5.270;2023-02-13T08:39:44;3.95;;;2.88;;
10061;SDS011;5070;52.382;5.270;2023-02-13T08:42:12;7.03;;;4.03;;
10061;SDS011;5070;52.382;5.270;2023-02-13T08:44:41;7.28;;;4.00;;
10061;SDS011;5070;52.382;5.270;2023-02-13T08:47:09;7.60;;;3.80;;
10061;SDS011;5070;52.382;5.270;2023-02-13T08:49:37;4.75;;;2.72;;
10061;SDS011;5070;52.382;5.270;2023-02-13T08:52:08;5.60;;;3.10;;
10061;SDS011;5070;52.382;5.270;2023-02-13T08:54:36;2.75;;;2.55;;
10061;SDS011;5070;52.382;5.270;2023-02-13T08:57:08;3.80;;;3.60;;
10061;SDS011;5070;52.382;5.270;2023-02-13T08:59:38;4.40;;;3.70;;
10061;SDS011;5070;52.382;5.270;2023-02-13T09:02:07;5.45;;;3.22;;
10061;SDS011;5070;52.382;5.270;2023-02-13T09:04:40;5.65;;;3.15;;
10061;SDS011;5070;52.382;5.270;2023-02-13T09:07:07;7.10;;;3.72;;
10061;SDS011;5070;52.382;5.270;2023-02-13T09:09:38;6.25;;;3.13;;
10061;SDS011;5070;52.382;5.270;2023-02-13T09:12:08;3.10;;;2.75;;
10061;SDS011;5070;52.382;5.270;2023-02-13T09:14:39;3.92;;;3.45;;
10061;SDS011;5070;52.382;5.270;2023-02-13T09:17:07;5.45;;;2.70;;
10061;SDS011;5070;52.382;5.270;2023-02-13T09:19:47;3.20;;;2.60;;
10061;SDS011;5070;52.382;5.270;2023-02-13T09:22:15;4.55;;;2.90;;
10061;SDS011;5070;52.382;5.270;2023-02-13T09:24:43;4.45;;;3.15;;
10061;SDS011;5070;52.382;5.270;2023-02-13T09:27:12;2.65;;;2.53;;
10061;SDS011;5070;52.382;5.270;2023-02-13T09:29:40;4.72;;;2.70;;
10061;SDS011;5070;52.382;5.270;2023-02-13T09:32:08;7.60;;;3.15;;
10061;SDS011;5070;52.382;5.270;2023-02-13T09:34:36;3.38;;;3.17;;
10061;SDS011;5070;52.382;5.270;2023-02-13T09:37:04;5.97;;;4.30;;
10061;SDS011;5070;52.382;5.270;2023-02-13T09:39:38;7.38;;;3.13;;
10061;SDS011;5070;52.382;5.270;2023-02-13T09:42:10;7.20;;;4.07;;
10061;SDS011;5070;52.382;5.270;2023-02-13T09:44:45;3.58;;;2.10;;
10061;SDS011;5070;52.382;5.270;2023-02-13T09:47:16;3.33;;;2.70;;
10061;SDS011;5070;52.382;5.270;2023-02-13T09:49:49;8.40;;;3.95;;
10061;SDS011;5070;52.382;5.270;2023-02-13T09:52:20;5.28;;;3.20;;
10061;SDS011;5070;52.382;5.270;2023-02-13T09:54:48;7.70;;;5.53;;
10061;SDS011;5070;52.382;5.270;2023-02-13T09:57:19;10.60;;;3.22;;
10061;SDS011;5070;52.382;5.270;2023-02-13T09:59:56;5.22;;;4.93;;
10061;SDS011;5070;52.382;5.270;2023-02-13T10:02:37;4.65;;;3.67;;
10061;SDS011;5070;52.382;5.270;2023-02-13T10:05:18;6.43;;;3.50;;
10061;SDS011;5070;52.382;5.270;2023-02-13T10:08:09;7.60;;;3.13;;
10061;SDS011;5070;52.382;5.270;2023-02-13T10:10:49;7.72;;;4.03;;
10061;SDS011;5070;52.382;5.270;2023-02-13T10:13:26;4.45;;;4.15;;
10061;SDS011;5070;52.382;5.270;2023-02-13T10:16:07;3.63;;;2.35;;
10061;SDS011;5070;52.382;5.270;2023-02-13T10:18:42;4.30;;;3.22;;
10061;SDS011;5070;52.382;5.270;2023-02-13T10:21:17;7.15;;;4.00;;
10061;SDS011;5070;52.382;5.270;2023-02-13T10:23:49;7.07;;;4.70;;
10061;SDS011;5070;52.382;5.270;2023-02-13T10:26:23;8.82;;;4.35;;
10061;SDS011;5070;52.382;5.270;2023-02-13T10:29:11;4.95;;;3.28;;
10061;SDS011;5070;52.382;5.270;2023-02-13T10:32:06;5.88;;;5.57;;
10061;SDS011;5070;52.382;5.270;2023-02-13T10:34:38;3.67;;;2.40;;
10061;SDS011;5070;52.382;5.270;2023-02-13T10:37:11;6.47;;;3.30;;
10061;SDS011;5070;52.382;5.270;2023-02-13T10:39:42;5.20;;;4.90;;
10061;SDS011;5070;52.382;5.270;2023-02-13T10:42:15;3.85;;;3.67;;
10061;SDS011;5070;52.382;5.270;2023-02-13T10:44:57;4.15;;;3.92;;
10061;SDS011;5070;52.382;5.270;2023-02-13T10:47:37;2.78;;;2.58;;
10061;SDS011;5070;52.382;5.270;2023-02-13T10:50:19;19.42;;;4.18;;
10061;SDS011;5070;52.382;5.270;2023-02-13T10:52:53;8.82;;;3.38;;
10061;SDS011;5070;52.382;5.270;2023-02-13T10:58:32;8.20;;;5.18;;
10061;SDS011;5070;52.382;5.270;2023-02-13T11:01:12;4.20;;;3.25;;
10061;SDS011;5070;52.382;5.270;2023-02-13T11:03:45;3.88;;;3.17;;
10061;SDS011;5070;52.382;5.270;2023-02-13T11:06:16;3.20;;;2.30;;
10061;SDS011;5070;52.382;5.270;2023-02-13T11:08:46;3.85;;;3.22;;
10061;SDS011;5070;52.382;5.270;2023-02-13T11:11:30;3.75;;;3.55;;
10061;SDS011;5070;52.382;5.270;2023-02-13T11:14:07;4.53;;;3.30;;
10061;SDS011;5070;52.382;5.270;2023-02-13T11:16:39;4.28;;;2.75;;
10061;SDS011;5070;52.382;5.270;2023-02-13T11:19:16;5.00;;;3.70;;
10061;SDS011;5070;52.382;5.270;2023-02-13T11:21:46;3.40;;;3.03;;
10061;SDS011;5070;52.382;5.270;2023-02-13T11:24:20;3.75;;;2.85;;
10061;SDS011;5070;52.382;5.270;2023-02-13T11:26:50;5.50;;;2.92;;
10061;SDS011;5070;52.382;5.270;2023-02-13T11:29:21;4.38;;;3.20;;
10061;SDS011;5070;52.382;5.270;2023-02-13T11:32:05;8.98;;;4.07;;
10061;SDS011;5070;52.382;5.270;2023-02-13T11:34:44;4.80;;;3.95;;
10061;SDS011;5070;52.382;5.270;2023-02-13T11:37:14;5.53;;;3.15;;
10061;SDS011;5070;52.382;5.270;2023-02-13T11:39:50;4.22;;;2.75;;
10061;SDS011;5070;52.382;5.270;2023-02-13T11:42:20;6.57;;;4.00;;
10061;SDS011;5070;52.382;5.270;2023-02-13T11:44:53;4.25;;;3.30;;
10061;SDS011;5070;52.382;5.270;2023-02-13T11:47:33;5.30;;;4.97;;
10061;SDS011;5070;52.382;5.270;2023-02-13T11:50:06;4.90;;;3.60;;
10061;SDS011;5070;52.382;5.270;2023-02-13T11:52:54;12.95;;;2.65;;
10061;SDS011;5070;52.382;5.270;2023-02-13T11:55:26;5.97;;;3.30;;
10061;SDS011;5070;52.382;5.270;2023-02-13T11:57:57;3.40;;;3.22;;
10061;SDS011;5070;52.382;5.270;2023-02-13T12:00:31;3.90;;;3.25;;
10061;SDS011;5070;52.382;5.270;2023-02-13T12:03:22;2.80;;;2.60;;
10061;SDS011;5070;52.382;5.270;2023-02-13T12:06:00;4.07;;;2.53;;
10061;SDS011;5070;52.382;5.270;2023-02-13T12:08:32;3.38;;;3.10;;
10061;SDS011;5070;52.382;5.270;2023-02-13T12:11:01;5.78;;;3.28;;
10061;SDS011;5070;52.382;5.270;2023-02-13T12:13:37;2.60;;;2.40;;
10061;SDS011;5070;52.382;5.270;2023-02-13T12:16:10;3.45;;;1.83;;
10061;SDS011;5070;52.382;5.270;2023-02-13T12:18:49;1.90;;;1.17;;
10061;SDS011;5070;52.382;5.270;2023-02-13T12:21:24;3.15;;;2.95;;
10061;SDS011;5070;52.382;5.270;2023-02-13T12:24:01;3.90;;;3.70;;
10061;SDS011;5070;52.382;5.270;2023-02-13T12:26:37;4.50;;;2.38;;
10061;SDS011;5070;52.382;5.270;2023-02-13T12:29:13;3.00;;;2.25;;
10061;SDS011;5070;52.382;5.270;2023-02-13T12:32:03;8.02;;;2.83;;
10061;SDS011;5070;52.382;5.270;2023-02-13T12:34:54;3.08;;;2.00;;
10061;SDS011;5070;52.382;5.270;2023-02-13T12:40:38;2.92;;;2.35;;
10061;SDS011;5070;52.382;5.270;2023-02-13T12:43:32;6.05;;;2.45;;
10061;SDS011;5070;52.382;5.270;2023-02-13T12:46:16;4.40;;;2.33;;
10061;SDS011;5070;52.382;5.270;2023-02-13T12:48:56;10.65;;;5.50;;
10061;SDS011;5070;52.382;5.270;2023-02-13T12:51:42;7.22;;;4.38;;
10061;SDS011;5070;52.382;5.270;2023-02-13T12:54:21;3.13;;;2.92;;
10061;SDS011;5070;52.382;5.270;2023-02-13T12:57:05;4.32;;;2.65;;
10061;SDS011;5070;52.382;5.270;2023-02-13T12:59:59;8.90;;;5.68;;
10061;SDS011;5070;52.382;5.270;2023-02-13T13:02:53;7.72;;;4.03;;
10061;SDS011;5070;52.382;5.270;2023-02-13T13:05:31;3.25;;;2.17;;
10061;SDS011;5070;52.382;5.270;2023-02-13T13:08:15;5.10;;;3.97;;
10061;SDS011;5070;52.382;5.270;2023-02-13T13:10:53;4.47;;;2.00;;
10061;SDS011;5070;52.382;5.270;2023-02-13T13:13:33;6.28;;;2.05;;
10061;SDS011;5070;52.382;5.270;2023-02-13T13:16:12;6.20;;;3.38;;
10061;SDS011;5070;52.382;5.270;2023-02-13T13:18:50;6.97;;;2.50;;
10061;SDS011;5070;52.382;5.270;2023-02-13T13:21:32;5.53;;;2.63;;
10061;SDS011;5070;52.382;5.270;2023-02-13T13:24:11;5.20;;;2.90;;
10061;SDS011;5070;52.382;5.270;2023-02-13T13:26:49;3.10;;;2.63;;
10061;SDS011;5070;52.382;5.270;2023-02-13T13:29:20;4.80;;;3.40;;
10061;SDS011;5070;52.382;5.270;2023-02-13T13:31:51;5.00;;;2.25;;
10061;SDS011;5070;52.382;5.270;2023-02-13T13:34:23;4.38;;;2.60;;
10061;SDS011;5070;52.382;5.270;2023-02-13T13:36:53;2.92;;;2.38;;
10061;SDS011;5070;52.382;5.270;2023-02-13T13:39:32;5.60;;;2.92;;
10061;SDS011;5070;52.382;5.270;2023-02-13T13:42:10;3.50;;;2.15;;
10061;SDS011;5070;52.382;5.270;2023-02-13T13:47:39;4.93;;;4.63;;
10061;SDS011;5070;52.382;5.270;2023-02-13T13:50:23;5.10;;;2.47;;
10061;SDS011;5070;52.382;5.270;2023-02-13T13:53:06;1.77;;;1.30;;
10061;SDS011;5070;52.382;5.270;2023-02-13T13:58:38;5.75;;;5.35;;
10061;SDS011;5070;52.382;5.270;2023-02-13T14:01:17;4.53;;;4.22;;
10061;SDS011;5070;52.382;5.270;2023-02-13T14:03:55;2.50;;;2.15;;
10061;SDS011;5070;52.382;5.270;2023-02-13T14:06:25;3.75;;;3.05;;
10061;SDS011;5070;52.382;5.270;2023-02-13T14:08:56;3.70;;;3.50;;
10061;SDS011;5070;52.382;5.270;2023-02-13T14:11:28;4.68;;;2.75;;
10061;SDS011;5070;52.382;5.270;2023-02-13T14:13:59;8.55;;;4.07;;
10061;SDS011;5070;52.382;5.270;2023-02-13T14:16:39;4.13;;;2.13;;
10061;SDS011;5070;52.382;5.270;2023-02-13T14:19:21;2.88;;;2.67;;
10061;SDS011;5070;52.382;5.270;2023-02-13T14:21:52;3.17;;;2.90;;
10061;SDS011;5070;52.382;5.270;2023-02-13T14:24:21;4.20;;;3.15;;
10061;SDS011;5070;52.382;5.270;2023-02-13T14:26:53;3.05;;;2.15;;
10061;SDS011;5070;52.382;5.270;2023-02-13T14:29:31;5.63;;;3.17;;
10061;SDS011;5070;52.382;5.270;2023-02-13T14:32:02;3.40;;;3.20;;
10061;SDS011;5070;52.382;5.270;2023-02-13T14:34:34;4.53;;;3.33;;
10061;SDS011;5070;52.382;5.270;2023-02-13T14:37:14;11.52;;;3.05;;
10061;SDS011;5070;52.382;5.270;2023-02-13T14:42:53;5.60;;;3.28;;
10061;SDS011;5070;52.382;5.270;2023-02-13T14:45:24;6.45;;;2.95;;
10061;SDS011;5070;52.382;5.270;2023-02-13T14:47:55;4.07;;;2.45;;
10061;SDS011;5070;52.382;5.270;2023-02-13T14:50:26;5.82;;;2.30;;
10061;SDS011;5070;52.382;5.270;2023-02-13T14:53:01;4.85;;;2.70;;
10061;SDS011;5070;52.382;5.270;2023-02-13T14:55:35;3.55;;;3.35;;
10061;SDS011;5070;52.382;5.270;2023-02-13T14:58:10;5.35;;;2.92;;
10061;SDS011;5070;52.382;5.270;2023-02-13T15:00:43;3.55;;;3.33;;
10061;SDS011;5070;52.382;5.270;2023-02-13T15:03:21;5.90;;;3.50;;
10061;SDS011;5070;52.382;5.270;2023-02-13T15:05:53;2.80;;;2.10;;
10061;SDS011;5070;52.382;5.270;2023-02-13T15:08:26;3.13;;;2.45;;
10061;SDS011;5070;52.382;5.270;2023-02-13T15:10:57;4.28;;;3.33;;
10061;SDS011;5070;52.382;5.270;2023-02-13T15:13:30;2.35;;;2.25;;
10061;SDS011;5070;52.382;5.270;2023-02-13T15:16:09;10.18;;;3.05;;
10061;SDS011;5070;52.382;5.270;2023-02-13T15:18:41;6.43;;;2.90;;
10061;SDS011;5070;52.382;5.270;2023-02-13T15:21:14;3.63;;;2.60;;
10061;SDS011;5070;52.382;5.270;2023-02-13T15:23:47;4.60;;;3.10;;
10061;SDS011;5070;52.382;5.270;2023-02-13T15:26:18;5.32;;;2.38;;
10061;SDS011;5070;52.382;5.270;2023-02-13T15:28:57;4.07;;;3.17;;
10061;SDS011;5070;52.382;5.270;2023-02-13T15:31:28;5.22;;;3.92;;
10061;SDS011;5070;52.382;5.270;2023-02-13T15:33:58;5.13;;;3.08;;
10061;SDS011;5070;52.382;5.270;2023-02-13T15:36:38;5.68;;;3.15;;
10061;SDS011;5070;52.382;5.270;2023-02-13T15:39:15;3.30;;;3.10;;
10061;SDS011;5070;52.382;5.270;2023-02-13T15:41:47;4.07;;;2.42;;
10061;SDS011;5070;52.382;5.270;2023-02-13T15:44:19;7.88;;;3.15;;
10061;SDS011;5070;52.382;5.270;2023-02-13T15:46:51;4.60;;;2.65;;
10061;SDS011;5070;52.382;5.270;2023-02-13T15:49:21;4.07;;;3.65;;
10061;SDS011;5070;52.382;5.270;2023-02-13T15:52:02;11.02;;;3.85;;
10061;SDS011;5070;52.382;5.270;2023-02-13T15:54:32;4.35;;;2.85;;
10061;SDS011;5070;52.382;5.270;2023-02-13T15:57:02;3.92;;;3.15;;
10061;SDS011;5070;52.382;5.270;2023-02-13T15:59:34;4.15;;;3.05;;